Los Angeles, CA

7:15 AM PDT on July 26, 2016 (GMT -0700)
Los Angeles International | | Change Station

Elev 105 ft 33.94 °N, 118.39 °W | Updated 22 minutes ago

Mostly Cloudy
Mostly Cloudy
67 °F
Feels Like 67 °F
N
6
Wind Variable Wind from West

Today
High -- | Low -- °F
--% Chance of Precip.
Yesterday
High -- | Low -- °F
Precip. -- in
Pressure 29.89 in
Visibility 1.5 miles
Clouds Few 300 ft
Mostly Cloudy 600 ft
Dew Point 64 °F
Humidity 90%
Rainfall 0.00 in
Snow Depth Not available.
6:01 AM 7:58 PM
Waning Gibbous, 54% visible
METAR KLAX 261353Z 28005KT 1 1/2SM BR FEW003 BKN006 19/18 A2989 RMK AO2 SLP120 VIS E-SE 3 ASOS VIS 6 T01940178
Pressure 29.89 in
Visibility 1.5 miles
Clouds Few 300 ft
Mostly Cloudy 600 ft
Dew Point 64 °F
Humidity 90%
Rainfall 0.00 in
Snow Depth Not available.
6:01 AM 7:58 PM
Waning Gibbous, 54% visible
METAR KLAX 261353Z 28005KT 1 1/2SM BR FEW003 BKN006 19/18 A2989 RMK AO2 SLP120 VIS E-SE 3 ASOS VIS 6 T01940178

10-Day Weather Forecast

Almanac

Astronomy

Jul. 26, 2016 Rise Set
Actual Time
Civil Twilight
Nautical Twilight
Astronomical Twilight
Moon
Length of Visible Light
Length of Day
Tomorrow will be .
, % of the Moon is Illuminated

Today's Extremes

State Highs State Lows

Community

WunderPhotos

Upload Photos

1,927,590 photos uploaded!

WunderBlog® & News

Nearby

Air Quality

  Air Quality AQ Index Pollutant
Not available.

Snow Depth

Station Depth Elevation

Earthquake Activity

City Distance Mag. Time & Date
Minimum magnitude displayed is 2.5.

Coastal Water Temperatures

Place Temperature

Stations

Nearby Weather Stations

Station Location Temp. Windchill Dew Point Humidity Wind Precip. Elev Updated Type
                   

Watches & Warnings

There are currently no watches in effect.